Main page
METAR-TAF:

METAR-TAF

Airports :

Nouakchott–Oumtounsy International Airport

Nouakchott, Mauritania

latitude: 18-18-36N, longitude: 015-58-11W, elevation: 3 m

Current weather observation

The report was made 32 minutes ago, at 23:30 UTC
Wind 16 kt from the West/Northwest
Temperature 28°C
Humidity 79%
Pressure 1011 hPa
Visibility 10 km or more
Broken clouds at a height of 1000 ft

METAR: GQNO 092330Z 30016KT 9999 BKN010 28/24 Q1011 NOSIG

Time: 00:02 (00:02 UTC)

Forecast

The report was made 1 hour and 2 minutes ago, at 23:00 UTC
Forecast valid from 10 at 00 UTC to 11 at 06 UTC
Wind 14 kt from the West
Visibility: 8000 m

TAF: GQNO 092300Z 1000/1106 28014KT 8000 NSC

Weather observations and forecasts of more than 4000 airports (METAR and TAF reports).

The available stations are represented by yellow and red dots on the map.

Hover mouse over dot to see the name of the station.

Then click to see weather observations and forecasts.

To change the map : click on the green buttons with a black cross to zoom in, on the green button with a dash to zoom out, or on the green arrows for adjacent maps.


METAR-TAF: